Time;durP1;ratioP1;P1;durP2;ratioP2;P2;SDS_P1;SDS_P2;PMS_P1;PMS_P2;Temp;Humidity;BMP_temperature;BMP_pressure;BME280_temperature;BME280_humidity;BME280_pressure;Samples;Min_cycle;Max_cycle;Signal;HPM_P1;HPM_P2
2023/12/01 00:00:08;;;;;;;1999.90;999.90;;;1.50;99.90;;;;;;5063481;28;20033;-74
2023/12/01 00:02:33;;;;;;;1999.90;999.90;;;1.30;99.90;;;;;;5072627;28;20498;-74
2023/12/01 00:04:59;;;;;;;1999.90;999.90;;;1.30;99.90;;;;;;5069741;28;20025;-74
2023/12/01 00:07:25;;;;;;;1999.90;999.90;;;1.40;99.90;;;;;;5074486;28;20032;-74
2023/12/01 00:09:52;;;;;;;1999.90;999.90;;;1.40;99.90;;;;;;5067758;28;20557;-75
2023/12/01 00:12:18;;;;;;;1999.90;999.90;;;1.50;99.90;;;;;;5073532;28;20029;-76
2023/12/01 00:14:43;;;;;;;1999.90;999.90;;;1.60;99.90;;;;;;5072420;28;20389;-76
2023/12/01 00:17:09;;;;;;;1999.90;999.90;;;1.60;99.90;;;;;;5070466;28;20025;-74
2023/12/01 00:19:35;;;;;;;1999.90;999.90;;;1.60;99.90;;;;;;5073160;28;20039;-74
2023/12/01 00:22:00;;;;;;;1999.90;999.90;;;1.50;99.90;;;;;;5071335;28;20036;-75
2023/12/01 00:24:26;;;;;;;1999.90;999.90;;;1.50;99.90;;;;;;5054486;28;20032;-74
2023/12/01 00:26:52;;;;;;;1999.90;999.90;;;1.50;99.90;;;;;;5067332;28;20028;-74
2023/12/01 00:29:17;;;;;;;1999.90;999.90;;;1.50;99.90;;;;;;5072402;28;20032;-74
2023/12/01 00:31:44;;;;;;;1999.90;999.90;;;1.60;99.90;;;;;;5066262;28;20036;-74
2023/12/01 00:34:10;;;;;;;1999.90;999.90;;;1.50;99.90;;;;;;5072372;28;20043;-75
2023/12/01 00:36:36;;;;;;;1999.90;999.90;;;1.60;99.90;;;;;;5071120;28;20119;-74
2023/12/01 00:39:02;;;;;;;1999.90;999.90;;;1.50;99.90;;;;;;5067823;28;20144;-74
2023/12/01 00:41:28;;;;;;;1999.90;999.90;;;1.60;99.90;;;;;;5066636;28;20043;-74
2023/12/01 00:43:56;;;;;;;1999.90;999.90;;;1.50;99.90;;;;;;5068568;28;20032;-74
2023/12/01 00:46:22;;;;;;;1999.90;999.90;;;1.60;99.90;;;;;;5068506;28;20021;-74
2023/12/01 00:48:48;;;;;;;1999.90;999.90;;;1.50;99.90;;;;;;5069298;28;20029;-74
2023/12/01 00:51:18;;;;;;;1999.90;999.90;;;1.50;99.90;;;;;;5065783;28;20056;-74
2023/12/01 00:53:43;;;;;;;1999.90;999.90;;;1.40;99.90;;;;;;5067908;28;20108;-74
2023/12/01 00:56:11;;;;;;;1999.90;999.90;;;1.50;99.90;;;;;;5069722;28;20112;-75
2023/12/01 00:58:37;;;;;;;1999.90;999.90;;;1.50;99.90;;;;;;5068366;28;20040;-74
2023/12/01 01:01:05;;;;;;;1999.90;999.90;;;1.40;99.90;;;;;;5068770;28;20063;-74
2023/12/01 01:03:31;;;;;;;1999.90;999.90;;;1.50;99.90;;;;;;5067398;28;20025;-74
2023/12/01 01:05:56;;;;;;;1999.90;999.90;;;1.50;99.90;;;;;;5066325;28;20031;-74
2023/12/01 01:08:22;;;;;;;1999.90;999.90;;;1.40;99.90;;;;;;5066987;28;20032;-74
2023/12/01 01:10:48;;;;;;;1999.90;999.90;;;1.40;99.90;;;;;;5068304;28;20082;-74
2023/12/01 01:13:14;;;;;;;1999.90;999.90;;;1.30;99.90;;;;;;5069563;28;20039;-74
2023/12/01 01:15:40;;;;;;;1999.90;999.90;;;1.40;99.90;;;;;;5068040;28;20032;-74
2023/12/01 01:18:09;;;;;;;1999.90;999.90;;;1.50;99.90;;;;;;5066596;28;20047;-74
2023/12/01 01:20:34;;;;;;;1999.90;999.90;;;1.50;99.90;;;;;;5067276;28;20032;-74
2023/12/01 01:23:00;;;;;;;1999.90;999.90;;;1.50;99.90;;;;;;5065914;28;20273;-74
2023/12/01 01:25:26;;;;;;;1999.90;999.90;;;1.60;99.90;;;;;;5069613;28;20025;-74
2023/12/01 01:27:51;;;;;;;1999.90;999.90;;;1.40;99.90;;;;;;5068985;28;20122;-74
2023/12/01 01:30:17;;;;;;;1999.90;999.90;;;1.40;99.90;;;;;;5070334;28;20032;-74
2023/12/01 01:32:42;;;;;;;1999.90;999.90;;;1.30;99.90;;;;;;5068187;28;20053;-74
2023/12/01 01:35:08;;;;;;;1999.90;999.90;;;1.30;99.90;;;;;;5067879;28;20470;-74
2023/12/01 01:37:34;;;;;;;1999.90;999.90;;;1.30;99.90;;;;;;5068956;28;20028;-74
2023/12/01 01:40:00;;;;;;;1999.90;999.90;;;1.30;99.90;;;;;;5066512;28;21465;-74
2023/12/01 01:42:26;;;;;;;1999.90;999.90;;;1.30;99.90;;;;;;5068780;28;20458;-74
2023/12/01 01:44:52;;;;;;;1999.90;999.90;;;1.30;99.90;;;;;;5067788;28;20104;-73
2023/12/01 01:47:17;;;;;;;1999.90;999.90;;;1.40;99.90;;;;;;5066676;28;20025;-74
2023/12/01 01:49:43;;;;;;;1999.90;999.90;;;1.30;99.90;;;;;;5070785;28;20052;-74
2023/12/01 01:52:11;;;;;;;1999.90;999.90;;;1.30;99.90;;;;;;5067678;28;20055;-74
2023/12/01 01:54:37;;;;;;;1999.90;999.90;;;1.30;99.90;;;;;;5067196;28;20032;-74
2023/12/01 01:57:06;;;;;;;1999.90;999.90;;;1.40;99.90;;;;;;5072515;28;20044;-74
2023/12/01 01:59:31;;;;;;;1999.90;999.90;;;1.40;99.90;;;;;;5067865;28;20024;-74
2023/12/01 02:01:57;;;;;;;1999.90;999.90;;;1.40;99.90;;;;;;5066895;28;20025;-75
2023/12/01 02:04:24;;;;;;;1999.90;999.90;;;1.20;99.90;;;;;;5053143;28;20036;-74
2023/12/01 02:06:49;;;;;;;1999.90;999.90;;;1.30;99.90;;;;;;5069808;28;20035;-74
2023/12/01 02:09:18;;;;;;;1999.90;999.90;;;1.40;99.90;;;;;;5065362;28;20510;-75
2023/12/01 02:11:44;;;;;;;1999.90;999.90;;;1.40;99.90;;;;;;5066410;28;20038;-74
2023/12/01 02:14:10;;;;;;;1999.90;999.90;;;1.40;99.90;;;;;;5067011;28;20042;-74
2023/12/01 02:16:36;;;;;;;1999.90;999.90;;;1.40;99.90;;;;;;5064405;28;20033;-74
2023/12/01 02:19:02;;;;;;;1999.90;999.90;;;1.40;99.90;;;;;;5066975;28;20107;-73
2023/12/01 02:21:28;;;;;;;1999.90;999.90;;;1.30;99.90;;;;;;5071768;28;20115;-76
2023/12/01 02:23:55;;;;;;;1999.90;999.90;;;1.40;99.90;;;;;;5063607;28;20441;-74
2023/12/01 02:26:22;;;;;;;1999.90;999.90;;;1.40;99.90;;;;;;5063632;28;20048;-74
2023/12/01 02:28:48;;;;;;;1999.90;999.90;;;1.30;99.90;;;;;;5072889;28;20035;-74
2023/12/01 02:31:14;;;;;;;1999.90;999.90;;;1.40;99.90;;;;;;5072613;28;20119;-74
2023/12/01 02:33:40;;;;;;;1999.90;999.90;;;1.30;99.90;;;;;;5074468;28;20594;-74
2023/12/01 02:36:08;;;;;;;1999.90;999.90;;;1.30;99.90;;;;;;5070349;28;20037;-74
2023/12/01 02:38:34;;;;;;;1999.90;999.90;;;1.20;99.90;;;;;;5074843;28;20050;-74
2023/12/01 02:41:02;;;;;;;1999.90;999.90;;;1.20;99.90;;;;;;5072688;28;20036;-74
2023/12/01 02:43:28;;;;;;;1999.90;999.90;;;1.30;99.90;;;;;;5070974;28;20029;-74
2023/12/01 02:45:54;;;;;;;1999.90;999.90;;;1.30;99.90;;;;;;5073729;28;20186;-74
2023/12/01 02:48:20;;;;;;;1999.90;999.90;;;1.40;99.90;;;;;;5072029;28;20579;-74
2023/12/01 02:50:46;;;;;;;1999.90;999.90;;;1.40;99.90;;;;;;5071016;28;20071;-74
2023/12/01 02:53:12;;;;;;;1999.90;999.90;;;1.40;99.90;;;;;;5072916;28;20170;-75
2023/12/01 02:55:37;;;;;;;1999.90;999.90;;;1.30;99.90;;;;;;5071169;28;20028;-75
2023/12/01 02:58:03;;;;;;;1999.90;999.90;;;1.20;99.90;;;;;;5068326;28;20824;-75
2023/12/01 03:00:29;;;;;;;1999.90;999.90;;;1.20;99.90;;;;;;5076348;28;20024;-74
2023/12/01 03:03:00;;;;;;;1999.90;999.90;;;1.30;99.90;;;;;;5075576;28;20044;-75
2023/12/01 03:05:26;;;;;;;1999.90;999.90;;;1.30;99.90;;;;;;5075177;28;20174;-74
2023/12/01 03:07:52;;;;;;;1999.90;999.90;;;1.10;99.90;;;;;;5069731;28;20119;-74
2023/12/01 03:10:17;;;;;;;1999.90;999.90;;;1.10;99.90;;;;;;5077094;28;20479;-74
2023/12/01 03:12:44;;;;;;;1999.90;999.90;;;1.10;99.90;;;;;;5070840;28;20036;-74
2023/12/01 03:15:12;;;;;;;1999.90;999.90;;;1.20;99.90;;;;;;5073783;28;20051;-74
2023/12/01 03:17:39;;;;;;;1999.90;999.90;;;1.30;99.90;;;;;;5069810;28;20110;-75
2023/12/01 03:20:14;;;;;;;1999.90;999.90;;;1.30;99.90;;;;;;5073181;28;20225;-74
2023/12/01 03:22:42;;;;;;;1999.90;999.90;;;1.30;99.90;;;;;;5068996;28;20546;-74
2023/12/01 03:25:11;;;;;;;1999.90;999.90;;;1.30;99.90;;;;;;5072412;28;20043;-74
2023/12/01 03:27:48;;;;;;;1999.90;999.90;;;1.30;99.90;;;;;;5070932;28;20490;-75
2023/12/01 03:30:15;;;;;;;1999.90;999.90;;;1.30;99.90;;;;;;5072291;28;20024;-75
2023/12/01 03:32:48;;;;;;;1999.90;999.90;;;1.30;99.90;;;;;;5068488;28;20039;-74
2023/12/01 03:35:26;;;;;;;1999.90;999.90;;;1.30;99.90;;;;;;5069352;28;20566;-74
2023/12/01 03:37:57;;;;;;;1999.90;999.90;;;1.20;99.90;;;;;;5073732;28;20028;-74
2023/12/01 03:40:24;;;;;;;1999.90;999.90;;;1.20;99.90;;;;;;5072135;28;20029;-74
2023/12/01 03:42:50;;;;;;;1999.90;999.90;;;1.20;99.90;;;;;;5072949;28;20127;-74
2023/12/01 03:45:16;;;;;;;1999.90;999.90;;;1.20;99.90;;;;;;5069831;28;20434;-75
2023/12/01 03:47:47;;;;;;;1999.90;999.90;;;1.20;99.90;;;;;;5076876;28;20530;-74
2023/12/01 03:50:13;;;;;;;1999.90;999.90;;;1.40;99.90;;;;;;5071627;28;20062;-74
2023/12/01 03:52:40;;;;;;;1999.90;999.90;;;1.30;99.90;;;;;;5074600;28;20035;-74
2023/12/01 03:55:06;;;;;;;1999.90;999.90;;;1.40;99.90;;;;;;5067438;28;20520;-74
2023/12/01 03:57:37;;;;;;;1999.90;999.90;;;1.20;99.90;;;;;;5069016;28;20102;-74
2023/12/01 04:00:07;;;;;;;1999.90;999.90;;;1.30;99.90;;;;;;5068721;28;20044;-75
2023/12/01 04:02:41;;;;;;;1999.90;999.90;;;1.30;99.90;;;;;;5071817;28;20036;-74
2023/12/01 04:05:08;;;;;;;1999.90;999.90;;;1.10;99.90;;;;;;5067213;28;20028;-74
2023/12/01 04:07:38;;;;;;;1999.90;999.90;;;1.20;99.90;;;;;;5068929;28;20024;-74
2023/12/01 04:10:10;;;;;;;1999.90;999.90;;;1.30;99.90;;;;;;5070633;28;20021;-75
2023/12/01 04:12:39;;;;;;;1999.90;999.90;;;1.30;99.90;;;;;;5071533;28;20536;-74
2023/12/01 04:15:05;;;;;;;1999.90;999.90;;;1.40;99.90;;;;;;5069826;28;20036;-74
2023/12/01 04:17:32;;;;;;;1999.90;999.90;;;1.30;99.90;;;;;;5067769;28;20044;-75
2023/12/01 04:19:57;;;;;;;1999.90;999.90;;;1.30;99.90;;;;;;5066131;28;20063;-75
2023/12/01 04:22:23;;;;;;;1999.90;999.90;;;1.30;99.90;;;;;;5070693;28;20650;-74
2023/12/01 04:24:48;;;;;;;1999.90;999.90;;;1.40;99.90;;;;;;5067314;28;20036;-75
2023/12/01 04:27:14;;;;;;;1999.90;999.90;;;1.30;99.90;;;;;;5068370;28;20081;-74
2023/12/01 04:29:40;;;;;;;1999.90;999.90;;;1.30;99.90;;;;;;5065622;28;20025;-76
2023/12/01 04:32:06;;;;;;;1999.90;999.90;;;1.30;99.90;;;;;;5069098;28;20036;-75
2023/12/01 04:34:31;;;;;;;1999.90;999.90;;;1.30;99.90;;;;;;5070476;28;20033;-74
2023/12/01 04:36:57;;;;;;;1999.90;999.90;;;1.20;99.90;;;;;;5071466;28;20070;-75
2023/12/01 04:39:23;;;;;;;1999.90;999.90;;;1.10;99.90;;;;;;5067242;28;20032;-74
2023/12/01 04:41:50;;;;;;;1999.90;999.90;;;1.20;99.90;;;;;;5068568;28;20087;-75
2023/12/01 04:44:17;;;;;;;1999.90;999.90;;;1.30;99.90;;;;;;5067691;28;20055;-74
2023/12/01 04:46:42;;;;;;;1999.90;999.90;;;1.40;99.90;;;;;;5072097;28;20091;-74
2023/12/01 04:49:11;;;;;;;1999.90;999.90;;;1.40;99.90;;;;;;5069313;28;20703;-75
2023/12/01 04:51:36;;;;;;;1999.90;999.90;;;1.30;99.90;;;;;;5072369;28;20118;-75
2023/12/01 04:54:06;;;;;;;1999.90;999.90;;;1.30;99.90;;;;;;5068365;28;20167;-74
2023/12/01 04:56:33;;;;;;;1999.90;999.90;;;1.40;99.90;;;;;;5066422;28;20032;-74
2023/12/01 04:59:00;;;;;;;1999.90;999.90;;;1.30;99.90;;;;;;5063402;28;20033;-74
2023/12/01 05:01:25;;;;;;;1999.90;999.90;;;1.40;99.90;;;;;;5067169;28;20044;-74
2023/12/01 05:03:51;;;;;;;1999.90;999.90;;;1.40;99.90;;;;;;5068554;28;20031;-73
2023/12/01 05:06:17;;;;;;;1999.90;999.90;;;1.40;99.90;;;;;;5070463;28;20668;-74
2023/12/01 05:08:43;;;;;;;1999.90;999.90;;;1.40;99.90;;;;;;5069333;28;20036;-72
2023/12/01 05:11:09;;;;;;;1999.90;999.90;;;1.40;99.90;;;;;;5066392;28;20039;-72
2023/12/01 05:13:35;;;;;;;1999.90;999.90;;;1.40;99.90;;;;;;5069936;28;20024;-72
2023/12/01 05:16:00;;;;;;;1999.90;999.90;;;1.40;99.90;;;;;;5069202;28;20027;-72
2023/12/01 05:18:26;;;;;;;1999.90;999.90;;;1.40;99.90;;;;;;5069769;28;20602;-72
2023/12/01 05:20:52;;;;;;;1999.90;999.90;;;1.40;99.90;;;;;;5063015;28;20112;-74
2023/12/01 05:23:17;;;;;;;1999.90;999.90;;;1.50;99.90;;;;;;5068384;28;20715;-72
2023/12/01 05:25:44;;;;;;;1999.90;999.90;;;1.50;99.90;;;;;;5067678;28;20028;-73
2023/12/01 05:28:10;;;;;;;1999.90;999.90;;;1.40;99.90;;;;;;5067865;28;20126;-73
2023/12/01 05:30:41;;;;;;;1999.90;999.90;;;1.40;99.90;;;;;;5067029;28;20028;-72
2023/12/01 05:33:07;;;;;;;1999.90;999.90;;;1.40;99.90;;;;;;5051130;28;20131;-72
2023/12/01 05:35:37;;;;;;;1999.90;999.90;;;1.40;99.90;;;;;;5067507;28;20162;-74
2023/12/01 05:38:06;;;;;;;1999.90;999.90;;;1.40;99.90;;;;;;5084955;28;20106;-73
2023/12/01 05:40:34;;;;;;;1999.90;999.90;;;1.40;99.90;;;;;;5069845;28;20029;-73
2023/12/01 05:43:00;;;;;;;1999.90;999.90;;;1.40;99.90;;;;;;5068843;28;20044;-74
2023/12/01 05:45:27;;;;;;;1999.90;999.90;;;1.40;99.90;;;;;;5070560;28;20460;-74
2023/12/01 05:47:55;;;;;;;1999.90;999.90;;;1.20;99.90;;;;;;5067600;28;20582;-73
2023/12/01 05:50:28;;;;;;;1999.90;999.90;;;1.20;99.90;;;;;;5065684;28;20052;-74
2023/12/01 05:52:59;;;;;;;1999.90;999.90;;;1.20;99.90;;;;;;5065147;28;20032;-73
2023/12/01 05:55:30;;;;;;;1999.90;999.90;;;1.30;99.90;;;;;;5071031;28;20128;-73
2023/12/01 05:57:58;;;;;;;1999.90;999.90;;;1.30;99.90;;;;;;5050798;28;20090;-72
2023/12/01 06:00:29;;;;;;;1999.90;999.90;;;1.30;99.90;;;;;;5068269;28;20056;-73
2023/12/01 06:02:59;;;;;;;1999.90;999.90;;;1.40;99.90;;;;;;5065543;28;20036;-74
2023/12/01 06:05:27;;;;;;;1999.90;999.90;;;1.50;99.90;;;;;;5050503;28;20093;-74
2023/12/01 06:07:58;;;;;;;1999.90;999.90;;;1.40;99.90;;;;;;5067018;28;20028;-73
2023/12/01 06:10:24;;;;;;;1999.90;999.90;;;1.30;99.90;;;;;;5071062;28;20021;-73
2023/12/01 06:12:50;;;;;;;1999.90;999.90;;;1.40;99.90;;;;;;5069162;28;20044;-74
2023/12/01 06:15:17;;;;;;;1999.90;999.90;;;1.30;99.90;;;;;;5069976;28;20029;-73
2023/12/01 06:17:46;;;;;;;1999.90;999.90;;;1.30;99.90;;;;;;5069240;28;20047;-74
2023/12/01 06:20:17;;;;;;;1999.90;999.90;;;1.30;99.90;;;;;;5084094;28;20506;-76
2023/12/01 06:22:47;;;;;;;1999.90;999.90;;;1.30;99.90;;;;;;5069764;28;20068;-77
2023/12/01 06:25:13;;;;;;;1999.90;999.90;;;1.30;99.90;;;;;;5064681;28;20028;-80
2023/12/01 06:27:40;;;;;;;1999.90;999.90;;;1.30;99.90;;;;;;5067102;28;20032;-74
2023/12/01 06:30:11;;;;;;;1999.90;999.90;;;1.40;99.90;;;;;;5066892;28;20028;-75
2023/12/01 06:32:47;;;;;;;1999.90;999.90;;;1.40;99.90;;;;;;5071426;28;20379;-75
2023/12/01 06:35:16;;;;;;;1999.90;999.90;;;1.50;99.90;;;;;;5068326;28;20033;-75
2023/12/01 06:37:43;;;;;;;1999.90;999.90;;;1.40;99.90;;;;;;5068800;28;20048;-74
2023/12/01 06:40:12;;;;;;;1999.90;999.90;;;1.30;99.90;;;;;;5070395;28;20017;-77
2023/12/01 06:42:49;;;;;;;1999.90;999.90;;;1.30;99.90;;;;;;5067467;28;20029;-76
2023/12/01 06:45:23;;;;;;;1999.90;999.90;;;1.40;99.90;;;;;;5068567;28;20167;-75
2023/12/01 06:47:52;;;;;;;1999.90;999.90;;;1.40;99.90;;;;;;5091156;28;20579;-74
2023/12/01 06:50:19;;;;;;;1999.90;999.90;;;1.20;99.90;;;;;;5066340;28;20456;-74
2023/12/01 06:52:46;;;;;;;1999.90;999.90;;;1.30;99.90;;;;;;5063758;28;20028;-74
2023/12/01 06:55:12;;;;;;;1999.90;999.90;;;1.30;99.90;;;;;;5065625;28;20056;-73
2023/12/01 06:57:43;;;;;;;1999.90;999.90;;;1.20;99.90;;;;;;5064434;28;20063;-74
2023/12/01 07:00:28;;;;;;;1999.90;999.90;;;1.20;99.90;;;;;;5066264;28;20025;-75
2023/12/01 07:03:01;;;;;;;1999.90;999.90;;;1.20;99.90;;;;;;5053011;28;20119;-75
2023/12/01 07:05:28;;;;;;;1999.90;999.90;;;1.10;99.90;;;;;;5067329;28;20059;-74
2023/12/01 07:07:58;;;;;;;1999.90;999.90;;;1.20;99.90;;;;;;5067533;28;20029;-74
2023/12/01 07:10:25;;;;;;;1999.90;999.90;;;1.20;99.90;;;;;;5066837;28;20035;-74
2023/12/01 07:12:52;;;;;;;1999.90;999.90;;;1.30;99.90;;;;;;5065352;28;20036;-75
2023/12/01 07:15:21;;;;;;;1999.90;999.90;;;1.20;99.90;;;;;;5065528;28;20041;-74
2023/12/01 07:17:51;;;;;;;1999.90;999.90;;;1.20;99.90;;;;;;5064357;28;20041;-74
2023/12/01 07:20:18;;;;;;;1999.90;999.90;;;1.20;99.90;;;;;;5069961;28;20037;-76
2023/12/01 07:22:45;;;;;;;1999.90;999.90;;;1.20;99.90;;;;;;5069679;28;20032;-75
2023/12/01 07:25:21;;;;;;;1999.90;999.90;;;1.10;99.90;;;;;;5070700;28;20037;-75
2023/12/01 07:28:08;;;;;;;1999.90;999.90;;;1.20;99.90;;;;;;5071128;28;20083;-74
2023/12/01 07:30:34;;;;;;;1999.90;999.90;;;1.40;99.90;;;;;;5066212;28;20117;-74
2023/12/01 07:33:04;;;;;;;1999.90;999.90;;;1.30;99.90;;;;;;5064582;28;20111;-75
2023/12/01 07:35:29;;;;;;;1999.90;999.90;;;1.40;99.90;;;;;;5069968;28;20024;-74
2023/12/01 07:37:55;;;;;;;1999.90;999.90;;;1.30;99.90;;;;;;5074059;28;20036;-75
2023/12/01 07:40:22;;;;;;;1999.90;999.90;;;1.20;99.90;;;;;;5067271;28;20033;-77
2023/12/01 07:42:49;;;;;;;1999.90;999.90;;;1.40;99.90;;;;;;5071099;28;20021;-73
2023/12/01 07:45:19;;;;;;;1999.90;999.90;;;1.40;99.90;;;;;;5075223;28;20024;-74
2023/12/01 07:47:45;;;;;;;1999.90;999.90;;;1.60;99.90;;;;;;5071606;28;20111;-75
2023/12/01 07:50:11;;;;;;;1999.90;999.90;;;1.50;99.90;;;;;;5065791;28;20049;-72
2023/12/01 07:52:37;;;;;;;1999.90;999.90;;;1.50;99.90;;;;;;5066849;28;20021;-74
2023/12/01 07:55:03;;;;;;;1999.90;999.90;;;1.50;99.90;;;;;;5069060;28;20400;-74
2023/12/01 07:57:28;;;;;;;1999.90;999.90;;;1.50;99.90;;;;;;5069478;28;20021;-73
2023/12/01 07:59:54;;;;;;;1999.90;999.90;;;1.40;99.90;;;;;;5071712;28;20051;-74
2023/12/01 08:02:20;;;;;;;1999.90;999.90;;;1.40;99.90;;;;;;5067664;28;20043;-74
2023/12/01 08:04:45;;;;;;;1999.90;999.90;;;1.30;99.90;;;;;;5071023;28;20131;-74
2023/12/01 08:07:11;;;;;;;1999.90;999.90;;;1.30;99.90;;;;;;5067620;28;20483;-73
2023/12/01 08:09:37;;;;;;;1999.90;999.90;;;1.40;99.90;;;;;;5063370;28;20021;-75
2023/12/01 08:12:04;;;;;;;1999.90;999.90;;;1.50;99.90;;;;;;5065927;28;20763;-78
2023/12/01 08:14:30;;;;;;;1999.90;999.90;;;1.50;99.90;;;;;;5069188;28;20553;-78
2023/12/01 08:16:58;;;;;;;1999.90;999.90;;;1.60;99.90;;;;;;5052484;28;20110;-77
2023/12/01 08:19:24;;;;;;;1999.90;999.90;;;1.70;99.90;;;;;;5066947;28;20387;-80
2023/12/01 08:21:50;;;;;;;1999.90;999.90;;;1.50;99.90;;;;;;5069844;28;20083;-77
2023/12/01 08:24:20;;;;;;;1999.90;999.90;;;1.40;99.90;;;;;;5069917;28;20044;-77
2023/12/01 08:26:46;;;;;;;1999.90;999.90;;;1.40;99.90;;;;;;5068215;28;20033;-78
2023/12/01 08:29:12;;;;;;;1999.90;999.90;;;1.30;99.90;;;;;;5069867;28;20086;-76
2023/12/01 08:31:39;;;;;;;1999.90;999.90;;;1.30;99.90;;;;;;5066810;28;20068;-78
2023/12/01 08:34:08;;;;;;;1999.90;999.90;;;1.30;99.90;;;;;;5068569;28;20055;-76
2023/12/01 08:36:34;;;;;;;1999.90;999.90;;;1.30;99.90;;;;;;5070102;28;20059;-74
2023/12/01 08:39:00;;;;;;;1999.90;999.90;;;1.20;99.90;;;;;;5067623;28;20036;-76
2023/12/01 08:41:26;;;;;;;1999.90;999.90;;;1.30;99.90;;;;;;5065516;28;20183;-78
2023/12/01 08:43:51;;;;;;;1999.90;999.90;;;1.20;99.90;;;;;;5068592;28;20111;-76
2023/12/01 08:46:17;;;;;;;1999.90;999.90;;;1.30;99.90;;;;;;5065208;28;20021;-76
2023/12/01 08:48:44;;;;;;;1999.90;999.90;;;1.20;99.90;;;;;;5070594;28;20028;-78
2023/12/01 08:51:09;;;;;;;1999.90;999.90;;;1.30;99.90;;;;;;5068104;28;20049;-76
2023/12/01 08:53:35;;;;;;;1999.90;999.90;;;1.30;99.90;;;;;;5064330;28;20028;-75
2023/12/01 08:56:00;;;;;;;1999.90;999.90;;;1.40;99.90;;;;;;5065874;28;20437;-77
2023/12/01 08:58:27;;;;;;;1999.90;999.90;;;1.30;99.90;;;;;;5063998;28;20741;-77
2023/12/01 09:00:52;;;;;;;1999.90;999.90;;;1.40;99.90;;;;;;5064794;28;20482;-76
2023/12/01 09:03:21;;;;;;;1999.90;999.90;;;1.30;99.90;;;;;;5069642;28;20033;-77
2023/12/01 09:05:47;;;;;;;1999.90;999.90;;;1.40;99.90;;;;;;5068847;28;20032;-76
2023/12/01 09:08:16;;;;;;;1999.90;999.90;;;1.40;99.90;;;;;;5065808;28;20024;-76
2023/12/01 09:10:42;;;;;;;1999.90;999.90;;;1.40;99.90;;;;;;5064942;28;20091;-75
2023/12/01 09:13:08;;;;;;;1999.90;999.90;;;1.40;99.90;;;;;;5067424;28;20082;-77
2023/12/01 09:15:34;;;;;;;1999.90;999.90;;;1.30;99.90;;;;;;5066483;28;20032;-76
2023/12/01 09:17:59;;;;;;;1999.90;999.90;;;1.30;99.90;;;;;;5067815;28;20042;-80
2023/12/01 09:20:25;;;;;;;1999.90;999.90;;;1.40;99.90;;;;;;5064714;28;20036;-76
2023/12/01 09:22:51;;;;;;;1999.90;999.90;;;1.40;99.90;;;;;;5065981;28;20589;-80
2023/12/01 09:25:17;;;;;;;1999.90;999.90;;;1.40;99.90;;;;;;5065277;28;20021;-76
2023/12/01 09:27:42;;;;;;;1999.90;999.90;;;1.40;99.90;;;;;;5067592;28;20024;-76
2023/12/01 09:30:13;;;;;;;1999.90;999.90;;;1.40;99.90;;;;;;5074061;28;20016;-77
2023/12/01 09:32:43;;;;;;;1999.90;999.90;;;1.60;99.90;;;;;;5069396;28;20036;-78
2023/12/01 09:35:08;;;;;;;1999.90;999.90;;;1.60;99.90;;;;;;5098994;27;20117;-78
2023/12/01 09:37:34;;;;;;;1999.90;999.90;;;1.50;99.90;;;;;;5067339;28;20052;-78
2023/12/01 09:40:02;;;;;;;1999.90;999.90;;;1.60;99.90;;;;;;5065826;28;20753;-77
2023/12/01 09:42:30;;;;;;;1999.90;999.90;;;1.60;99.90;;;;;;5061721;28;20020;-76
2023/12/01 09:44:58;;;;;;;1999.90;999.90;;;1.70;99.90;;;;;;5065676;28;20043;-77
2023/12/01 09:47:26;;;;;;;1999.90;999.90;;;1.60;99.90;;;;;;5061746;28;20027;-78
2023/12/01 09:49:55;;;;;;;1999.90;999.90;;;1.70;99.90;;;;;;5070488;28;20029;-77
2023/12/01 09:52:21;;;;;;;1999.90;999.90;;;1.60;99.90;;;;;;5066770;28;20047;-77
2023/12/01 09:54:46;;;;;;;1999.90;999.90;;;1.60;99.90;;;;;;5067389;28;20040;-78
2023/12/01 09:57:12;;;;;;;1999.90;999.90;;;1.50;99.90;;;;;;5066083;28;20028;-78
2023/12/01 09:59:38;;;;;;;1999.90;999.90;;;1.40;99.90;;;;;;5069906;28;20602;-77
2023/12/01 10:02:04;;;;;;;1999.90;999.90;;;1.40;99.90;;;;;;5101851;27;20082;-77
2023/12/01 10:04:31;;;;;;;1999.90;999.90;;;1.40;99.90;;;;;;5070229;28;20032;-77
2023/12/01 10:06:57;;;;;;;1999.90;999.90;;;1.50;99.90;;;;;;5069462;28;20486;-77
2023/12/01 10:09:38;;;;;;;1999.90;999.90;;;1.40;99.90;;;;;;5064137;28;20033;-76
2023/12/01 10:12:10;;;;;;;;;;;1.50;99.90;;;;;;5070862;28;20031;-78
2023/12/01 10:14:45;;;;;;;1999.90;999.90;;;1.50;99.90;;;;;;5070659;28;19919;-76
2023/12/01 10:17:14;;;;;;;1999.90;999.90;;;1.40;99.90;;;;;;5070523;28;20588;-77
2023/12/01 10:19:48;;;;;;;1999.90;999.90;;;1.50;99.90;;;;;;5067026;28;20040;-76
2023/12/01 10:22:19;;;;;;;1999.90;999.90;;;1.50;99.90;;;;;;5071289;28;20035;-75
2023/12/01 10:24:56;;;;;;;1999.90;999.90;;;1.50;99.90;;;;;;5065678;28;20078;-76
2023/12/01 10:27:22;;;;;;;1999.90;999.90;;;1.50;99.90;;;;;;5067412;28;20033;-76
2023/12/01 10:29:47;;;;;;;1999.90;999.90;;;1.50;99.90;;;;;;5049677;28;20085;-78
2023/12/01 10:32:16;;;;;;;1999.90;999.90;;;1.50;99.90;;;;;;5067337;28;20394;-78
2023/12/01 10:34:49;;;;;;;1999.90;999.90;;;1.40;99.90;;;;;;5067945;28;20033;-77
2023/12/01 10:37:16;;;;;;;1999.90;999.90;;;1.40;99.90;;;;;;5069801;28;20029;-77
2023/12/01 10:39:43;;;;;;;1999.90;999.90;;;1.40;99.90;;;;;;5071106;28;20127;-76
2023/12/01 10:42:10;;;;;;;1999.90;999.90;;;1.30;99.90;;;;;;5067557;28;20036;-78
2023/12/01 10:44:39;;;;;;;1999.90;999.90;;;1.30;99.90;;;;;;5069030;28;20033;-76
2023/12/01 10:47:07;;;;;;;1999.90;999.90;;;1.50;99.90;;;;;;5064597;28;20033;-76
2023/12/01 10:49:35;;;;;;;1999.90;999.90;;;1.50;99.90;;;;;;5065919;28;20102;-76
2023/12/01 10:52:01;;;;;;;1999.90;999.90;;;1.60;99.90;;;;;;5066320;28;20053;-76
2023/12/01 10:54:27;;;;;;;1999.90;999.90;;;1.60;99.90;;;;;;5071185;28;20109;-75
2023/12/01 10:57:15;;;;;;;1999.90;999.90;;;1.60;99.90;;;;;;5070843;28;20437;-76
2023/12/01 10:59:45;;;;;;;1999.90;999.90;;;1.40;99.90;;;;;;5070383;28;20032;-75
2023/12/01 11:02:13;;;;;;;;;;;1.40;99.90;;;;;;5072164;28;20390;-75
2023/12/01 11:04:42;;;;;;;1999.90;999.90;;;1.40;99.90;;;;;;5083627;28;20355;-76
2023/12/01 11:07:27;;;;;;;1999.90;999.90;;;1.40;99.90;;;;;;5055719;28;20032;-78
2023/12/01 11:10:09;;;;;;;1999.90;999.90;;;1.40;99.90;;;;;;5066756;28;20104;-75
2023/12/01 11:12:46;;;;;;;1999.90;999.90;;;1.50;99.90;;;;;;5071299;28;20556;-75
2023/12/01 11:15:21;;;;;;;1999.90;999.90;;;1.50;99.90;;;;;;5070934;28;20591;-75
2023/12/01 11:17:46;;;;;;;1999.90;999.90;;;1.50;99.90;;;;;;5069579;28;20380;-75
2023/12/01 11:20:32;;;;;;;1999.90;999.90;;;1.50;99.90;;;;;;5067021;28;20129;-74
2023/12/01 11:23:24;;;;;;;1999.90;999.90;;;1.40;99.90;;;;;;5071523;28;20119;-77
2023/12/01 11:25:55;;;;;;;1999.90;999.90;;;1.40;99.90;;;;;;5068573;28;20058;-75
2023/12/01 11:31:13;;;;;;;1999.90;999.90;;;1.30;99.90;;;;;;5066529;28;20029;-75
2023/12/01 11:33:44;;;;;;;1999.90;999.90;;;1.40;99.90;;;;;;5067994;28;20078;-75
2023/12/01 11:36:47;;;;;;;1999.90;999.90;;;1.40;99.90;;;;;;5068411;28;20025;-74
2023/12/01 11:39:16;;;;;;;1999.90;999.90;;;1.40;99.90;;;;;;5070003;28;20031;-76
2023/12/01 11:41:42;;;;;;;1999.90;999.90;;;1.50;99.90;;;;;;5069177;28;20038;-75
2023/12/01 11:44:15;;;;;;;1999.90;999.90;;;1.50;99.90;;;;;;5070999;28;20638;-74
2023/12/01 11:46:41;;;;;;;1999.90;999.90;;;1.40;99.90;;;;;;5071338;28;20085;-74
2023/12/01 11:49:07;;;;;;;1999.90;999.90;;;1.30;99.90;;;;;;5068446;28;20797;-76
2023/12/01 11:51:33;;;;;;;1999.90;999.90;;;1.40;99.90;;;;;;5068327;28;20053;-74
2023/12/01 11:54:03;;;;;;;1999.90;999.90;;;1.40;99.90;;;;;;5068501;28;20573;-75
2023/12/01 11:56:33;;;;;;;1999.90;999.90;;;1.30;99.90;;;;;;5070978;28;20461;-74
2023/12/01 11:58:59;;;;;;;1999.90;999.90;;;1.30;99.90;;;;;;5070273;28;20031;-74
2023/12/01 12:01:25;;;;;;;1999.90;999.90;;;1.30;99.90;;;;;;5072271;28;20024;-75
2023/12/01 12:03:58;;;;;;;1999.90;999.90;;;1.40;99.90;;;;;;5069065;28;20035;-76
2023/12/01 12:06:25;;;;;;;1999.90;999.90;;;1.40;99.90;;;;;;5068214;28;20086;-75
2023/12/01 12:08:52;;;;;;;1999.90;999.90;;;1.40;99.90;;;;;;5068818;28;20028;-75
2023/12/01 12:11:19;;;;;;;1999.90;999.90;;;1.40;99.90;;;;;;5070366;28;20060;-75
2023/12/01 12:13:54;;;;;;;1999.90;999.90;;;1.30;99.90;;;;;;5069710;28;20039;-75